Time;durP1;ratioP1;P1;durP2;ratioP2;P2;SDS_P1;SDS_P2;PMS_P1;PMS_P2;Temp;Humidity;BMP_temperature;BMP_pressure;BME280_temperature;BME280_humidity;BME280_pressure;Samples;Min_cycle;Max_cycle;Signal;HPM_P1;HPM_P2
2021/10/27 00:00:08;;;;;;;78.90;27.90;;;;;;;2.15;65.32;100687.90;27257;1215;3026274;-71
2021/10/27 00:02:43;;;;;;;73.40;24.60;;;;;;;2.14;65.77;100689.64;27190;1216;3049894;-70
2021/10/27 00:05:13;;;;;;;72.20;25.80;;;;;;;2.13;65.25;100693.62;27271;1216;3027279;-70
2021/10/27 00:07:43;;;;;;;81.40;26.80;;;;;;;2.12;65.31;100688.80;27266;1215;3026543;-69
2021/10/27 00:10:23;;;;;;;80.80;27.80;;;;;;;2.10;65.45;100684.47;27301;1213;3071144;-70
2021/10/27 00:12:52;;;;;;;85.60;27.90;;;;;;;2.10;65.17;100679.46;27266;1215;3026778;-71
2021/10/27 00:15:27;;;;;;;78.50;27.30;;;;;;;2.09;65.10;100679.64;27290;1215;3053634;-71
2021/10/27 00:17:56;;;;;;;82.00;27.50;;;;;;;2.11;65.15;100679.28;27269;1215;3028214;-68
2021/10/27 00:20:26;;;;;;;77.60;27.10;;;;;;;2.09;65.20;100682.59;27232;1215;3026388;-69
2021/10/27 00:22:55;;;;;;;89.00;28.50;;;;;;;2.10;65.33;100677.23;27238;1215;3051239;-66
2021/10/27 00:25:24;;;;;;;95.20;29.20;;;;;;;2.11;64.92;100670.98;27241;1215;3028717;-69
2021/10/27 00:27:54;;;;;;;99.90;29.70;;;;;;;2.08;65.00;100664.11;27259;1215;3048302;-67
2021/10/27 00:30:24;;;;;;;94.20;31.30;;;;;;;2.07;64.89;100656.67;27254;1209;3027769;-72
2021/10/27 00:32:54;;;;;;;92.00;29.60;;;;;;;2.06;64.92;100658.23;27217;1215;3029187;-69
2021/10/27 00:35:24;;;;;;;104.40;30.80;;;;;;;2.04;64.72;100664.29;27220;1215;3048580;-66
2021/10/27 00:37:53;;;;;;;96.00;31.20;;;;;;;2.06;65.02;100665.14;27271;1215;3026038;-72
2021/10/27 00:40:22;;;;;;;108.90;33.40;;;;;;;2.06;64.55;100665.84;27261;1215;3027293;-67
2021/10/27 00:42:51;;;;;;;89.20;28.40;;;;;;;2.02;64.29;100663.10;27211;1215;3027344;-66
2021/10/27 00:45:24;;;;;;;94.90;29.70;;;;;;;2.01;64.15;100662.06;27239;1215;3027235;-68
2021/10/27 00:47:54;;;;;;;90.00;28.20;;;;;;;1.97;64.07;100661.90;27240;1215;3026324;-71
2021/10/27 00:50:24;;;;;;;85.00;28.90;;;;;;;2.00;63.97;100657.41;27272;1215;3025952;-70
2021/10/27 00:52:53;;;;;;;92.50;28.70;;;;;;;2.00;63.83;100658.27;27203;1215;3026310;-69
2021/10/27 00:55:24;;;;;;;80.90;27.50;;;;;;;1.99;63.97;100656.20;27265;1215;3051810;-72
2021/10/27 00:57:53;;;;;;;80.80;27.20;;;;;;;1.97;63.45;100657.41;27286;1215;3027126;-70
2021/10/27 01:00:22;;;;;;;89.00;28.40;;;;;;;1.97;64.20;100650.50;27224;1215;3025908;-70
2021/10/27 01:02:51;;;;;;;81.40;26.70;;;;;;;1.96;64.43;100651.55;27198;1215;3051556;-68
2021/10/27 01:05:20;;;;;;;76.90;24.80;;;;;;;1.93;64.53;100648.64;27243;1215;3026353;-73
2021/10/27 01:07:51;;;;;;;70.40;25.00;;;;;;;1.91;65.43;100649.69;27263;1215;3048314;-69
2021/10/27 01:10:26;;;;;;;74.40;25.00;;;;;;;1.96;65.36;100645.33;27225;1215;3054884;-69
2021/10/27 01:12:57;;;;;;;75.40;25.80;;;;;;;1.94;65.42;100641.89;27226;1215;3028383;-72
2021/10/27 01:15:25;;;;;;;81.20;27.20;;;;;;;1.93;65.38;100643.46;27204;1215;3049414;-70
2021/10/27 01:17:55;;;;;;;71.50;24.30;;;;;;;1.95;65.53;100644.83;27223;1215;3027001;-69
2021/10/27 01:20:26;;;;;;;83.40;26.50;;;;;;;1.97;65.51;100637.38;27220;1215;3058471;-71
2021/10/27 01:22:56;;;;;;;73.90;25.50;;;;;;;1.95;64.93;100632.04;27235;1215;3027252;-71
2021/10/27 01:25:25;;;;;;;72.80;25.90;;;;;;;1.96;64.82;100630.98;27227;1215;3026203;-70
2021/10/27 01:27:56;;;;;;;81.20;28.90;;;;;;;1.97;64.51;100627.34;27218;1215;3056303;-72
2021/10/27 01:30:26;;;;;;;104.60;30.20;;;;;;;2.05;64.13;100625.91;27212;1216;3026857;-70
2021/10/27 01:32:55;;;;;;;108.20;31.30;;;;;;;2.06;64.40;100628.86;27247;1215;3026909;-69
2021/10/27 01:35:24;;;;;;;96.30;32.30;;;;;;;2.12;63.98;100632.27;27224;1215;3028805;-73
2021/10/27 01:37:53;;;;;;;111.10;36.20;;;;;;;2.15;63.98;100635.52;27224;1215;3048601;-70
2021/10/27 01:40:23;;;;;;;125.70;39.90;;;;;;;2.17;63.78;100632.75;27228;1215;3026580;-71
2021/10/27 01:42:53;;;;;;;131.30;41.00;;;;;;;2.19;64.14;100630.31;27231;1215;3025804;-69
2021/10/27 01:45:28;;;;;;;146.50;43.90;;;;;;;2.23;63.71;100627.85;27267;1215;3026433;-70
2021/10/27 01:47:57;;;;;;;137.50;44.10;;;;;;;2.22;63.55;100629.06;27248;1215;3049055;-72
2021/10/27 01:50:26;;;;;;;130.90;40.00;;;;;;;2.27;63.55;100629.90;27278;1209;3026371;-71
2021/10/27 01:52:55;;;;;;;145.30;46.30;;;;;;;2.31;63.25;100626.24;27216;1215;3067131;-72
2021/10/27 01:55:26;;;;;;;165.40;48.60;;;;;;;2.31;63.08;100623.83;27220;1208;3026364;-70
2021/10/27 01:57:55;;;;;;;176.30;46.50;;;;;;;2.34;62.78;100617.41;27254;1215;3049990;-72
2021/10/27 02:00:27;;;;;;;139.10;40.30;;;;;;;2.34;62.96;100617.73;27208;1215;3029175;-69
2021/10/27 02:02:56;;;;;;;134.70;41.00;;;;;;;2.30;62.95;100611.73;27239;1215;3026969;-70
2021/10/27 02:05:25;;;;;;;130.10;36.20;;;;;;;2.24;63.21;100612.12;27211;1215;3026264;-70
2021/10/27 02:07:54;;;;;;;118.20;36.10;;;;;;;2.25;63.28;100606.58;27224;1215;3067782;-70
2021/10/27 02:10:23;;;;;;;121.00;33.80;;;;;;;2.31;63.33;100604.11;27203;1215;3026901;-71
2021/10/27 02:12:52;;;;;;;115.70;34.10;;;;;;;2.30;63.46;100601.02;27225;1215;3050125;-71
2021/10/27 02:15:21;;;;;;;122.40;34.10;;;;;;;2.36;63.08;100599.91;27209;1215;3027110;-70
2021/10/27 02:17:50;;;;;;;129.80;36.10;;;;;;;2.35;62.79;100602.52;27235;1215;3054675;-70
2021/10/27 02:20:19;;;;;;;101.10;31.70;;;;;;;2.35;62.59;100604.94;27222;1215;3026240;-70
2021/10/27 02:22:50;;;;;;;102.30;28.40;;;;;;;2.30;62.55;100607.40;27237;1215;3028453;-72
2021/10/27 02:25:20;;;;;;;72.90;23.80;;;;;;;2.30;62.60;100611.02;27240;1215;3026453;-69
2021/10/27 02:27:48;;;;;;;75.40;23.80;;;;;;;2.33;62.20;100607.90;27257;1215;3027072;-68
2021/10/27 02:30:18;;;;;;;71.30;21.30;;;;;;;2.28;62.11;100609.48;27251;1215;3067278;-70
2021/10/27 02:32:48;;;;;;;64.10;18.50;;;;;;;2.28;62.25;100608.98;27229;1217;3028454;-70
2021/10/27 02:35:17;;;;;;;61.00;19.10;;;;;;;2.31;61.95;100606.52;27252;1216;3050150;-69
2021/10/27 02:37:46;;;;;;;51.30;17.40;;;;;;;2.30;61.58;100612.23;27221;1215;3026314;-68
2021/10/27 02:40:16;;;;;;;53.00;17.40;;;;;;;2.31;61.20;100607.39;27251;1215;3054580;-72
2021/10/27 02:42:45;;;;;;;41.80;14.50;;;;;;;2.27;61.22;100604.66;27238;1215;3028216;-71
2021/10/27 02:45:14;;;;;;;43.90;13.60;;;;;;;2.30;61.01;100604.64;27227;1215;3025949;-70
2021/10/27 02:47:45;;;;;;;41.60;13.50;;;;;;;2.34;60.88;100608.40;27198;1215;3053178;-68
2021/10/27 02:50:15;;;;;;;33.80;13.20;;;;;;;2.33;60.48;100607.89;27220;1215;3026403;-69
2021/10/27 02:52:47;;;;;;;41.70;12.10;;;;;;;2.33;60.62;100607.55;27209;1216;3028582;-73
2021/10/27 02:55:16;;;;;;;33.10;12.10;;;;;;;2.29;60.51;100606.54;27218;1215;3026151;-68
2021/10/27 02:57:45;;;;;;;36.10;11.50;;;;;;;2.29;60.59;100608.10;27248;1215;3027747;-66
2021/10/27 03:00:14;;;;;;;30.80;10.30;;;;;;;2.33;60.06;100604.96;27214;1215;3070446;-69
2021/10/27 03:02:47;;;;;;;32.20;11.00;;;;;;;2.32;60.01;100602.02;27209;1215;3027153;-69
2021/10/27 03:05:16;;;;;;;32.20;9.90;;;;;;;2.27;60.26;100599.12;27234;1215;3027411;-68
2021/10/27 03:07:47;;;;;;;33.20;10.10;;;;;;;2.23;60.52;100597.95;27270;1215;3025565;-73
2021/10/27 03:10:16;;;;;;;32.40;9.80;;;;;;;2.29;60.02;100599.10;27222;1209;3027136;-72
2021/10/27 03:12:46;;;;;;;27.00;9.30;;;;;;;2.33;59.66;100601.84;27211;1215;3026495;-73
2021/10/27 03:15:15;;;;;;;33.90;10.10;;;;;;;2.33;60.12;100599.08;27247;1215;3026249;-70
2021/10/27 03:17:44;;;;;;;27.60;9.00;;;;;;;2.40;59.67;100596.23;27229;1215;3054086;-72
2021/10/27 03:20:13;;;;;;;30.80;10.60;;;;;;;2.46;59.56;100594.13;27229;1215;3029327;-73
2021/10/27 03:22:42;;;;;;;27.50;10.00;;;;;;;2.49;59.29;100589.59;27179;1215;3051193;-68
2021/10/27 03:25:11;;;;;;;27.20;8.80;;;;;;;2.54;59.27;100593.52;27227;1209;3025935;-71
2021/10/27 03:27:40;;;;;;;30.10;9.20;;;;;;;2.52;58.83;100588.34;27221;1215;3053534;-68
2021/10/27 03:30:10;;;;;;;30.10;9.00;;;;;;;2.46;59.27;100589.10;27239;1216;3028396;-72
2021/10/27 03:32:39;;;;;;;23.20;8.40;;;;;;;2.45;59.08;100587.03;27212;1215;3026339;-71
2021/10/27 03:35:08;;;;;;;27.40;9.40;;;;;;;2.47;59.13;100585.29;27221;1215;3053429;-71
2021/10/27 03:37:37;;;;;;;23.90;7.70;;;;;;;2.47;58.89;100582.70;27237;1209;3026499;-68
2021/10/27 03:40:07;;;;;;;24.60;8.20;;;;;;;2.52;58.94;100586.80;27227;1215;3026404;-71
2021/10/27 03:42:36;;;;;;;17.40;7.20;;;;;;;2.52;58.70;100581.26;27209;1215;3051549;-71
2021/10/27 03:45:05;;;;;;;19.50;8.10;;;;;;;2.51;58.67;100579.89;27249;1215;3028178;-70
2021/10/27 03:47:34;;;;;;;27.80;8.40;;;;;;;2.51;58.51;100579.73;27234;1215;3046777;-71
2021/10/27 03:50:06;;;;;;;30.60;10.70;;;;;;;2.50;58.45;100578.52;27205;1215;3026135;-69
2021/10/27 03:52:35;;;;;;;31.10;10.20;;;;;;;2.47;59.04;100579.58;27320;1215;3026647;-70
2021/10/27 03:55:06;;;;;;;34.40;11.70;;;;;;;2.40;59.24;100584.14;27290;1215;3026215;-69
2021/10/27 03:57:35;;;;;;;40.40;12.40;;;;;;;2.38;59.34;100584.86;27267;1215;3052337;-72
2021/10/27 04:00:05;;;;;;;38.20;12.60;;;;;;;2.33;59.05;100581.27;27287;1215;3026426;-68
2021/10/27 04:02:41;;;;;;;37.60;12.90;;;;;;;2.28;59.56;100583.21;27274;1215;3048502;-69
2021/10/27 04:05:10;;;;;;;45.10;14.20;;;;;;;2.25;59.71;100580.13;27251;1215;3025880;-74
2021/10/27 04:07:41;;;;;;;41.50;14.20;;;;;;;2.28;59.24;100581.13;27290;1215;3027433;-69
2021/10/27 04:10:11;;;;;;;38.50;14.30;;;;;;;2.26;59.63;100584.61;27271;1209;3026353;-71
2021/10/27 04:12:41;;;;;;;46.50;13.70;;;;;;;2.28;59.45;100582.52;27273;1215;3025927;-68
2021/10/27 04:15:10;;;;;;;46.10;16.10;;;;;;;2.23;59.48;100586.70;27270;1215;3026605;-68
2021/10/27 04:17:41;;;;;;;43.00;14.90;;;;;;;2.22;59.51;100591.04;27325;1215;3054683;-68
2021/10/27 04:20:10;;;;;;;47.70;16.10;;;;;;;2.15;59.77;100594.73;27350;1215;3027837;-70
2021/10/27 04:22:39;;;;;;;43.60;15.30;;;;;;;2.13;59.61;100597.33;27293;1215;3026380;-69
2021/10/27 04:25:09;;;;;;;40.50;13.80;;;;;;;2.11;59.90;100598.38;27285;1215;3026377;-69
2021/10/27 04:27:40;;;;;;;38.00;12.90;;;;;;;2.14;59.83;100598.71;27275;1215;3048279;-69
2021/10/27 04:30:10;;;;;;;41.30;13.70;;;;;;;2.20;59.51;100597.45;27274;1215;3027709;-71
2021/10/27 04:32:41;;;;;;;39.00;13.10;;;;;;;2.16;60.09;100592.99;27289;1215;3026277;-73
2021/10/27 04:35:10;;;;;;;38.10;12.00;;;;;;;2.13;59.90;100592.84;27263;1215;3027852;-70
2021/10/27 04:37:41;;;;;;;29.80;11.50;;;;;;;2.13;60.10;100589.04;27348;1215;3028393;-65
2021/10/27 04:40:15;;;;;;;31.40;11.20;;;;;;;2.16;60.22;100592.30;27342;1215;3025938;-71
2021/10/27 04:42:45;;;;;;;28.10;10.30;;;;;;;2.20;59.66;100593.66;27267;1215;3050897;-68
2021/10/27 04:45:14;;;;;;;24.80;10.70;;;;;;;2.23;59.79;100592.77;27279;1216;3028124;-69
2021/10/27 04:47:43;;;;;;;23.40;10.20;;;;;;;2.24;59.77;100594.83;27240;1209;3027070;-68
2021/10/27 04:50:13;;;;;;;24.50;9.80;;;;;;;2.24;60.10;100594.48;27228;1215;3026387;-73
2021/10/27 04:52:43;;;;;;;25.40;9.60;;;;;;;2.31;59.61;100595.11;27281;1215;3026609;-68
2021/10/27 04:55:12;;;;;;;22.30;9.40;;;;;;;2.30;59.55;100598.75;27233;1215;3026392;-73
2021/10/27 04:57:40;;;;;;;21.10;9.20;;;;;;;2.30;59.69;100601.68;27247;1215;3051368;-70
2021/10/27 05:00:10;;;;;;;21.90;8.40;;;;;;;2.30;59.90;100604.80;27253;1215;3026057;-67
2021/10/27 05:02:40;;;;;;;27.70;10.30;;;;;;;2.31;60.23;100598.40;27217;1217;3048946;-70
2021/10/27 05:05:09;;;;;;;26.60;10.90;;;;;;;2.31;59.82;100601.16;27252;1215;3026361;-67
2021/10/27 05:07:43;;;;;;;30.40;11.50;;;;;;;2.28;60.15;100596.70;27226;1215;3026057;-69
2021/10/27 05:10:12;;;;;;;29.00;11.60;;;;;;;2.33;60.07;100598.04;27300;1215;3028013;-69
2021/10/27 05:12:41;;;;;;;29.50;11.10;;;;;;;2.32;60.25;100598.56;27258;1209;3026079;-69
2021/10/27 05:15:10;;;;;;;33.80;11.60;;;;;;;2.31;60.16;100604.09;27250;1215;3025685;-71
2021/10/27 05:17:39;;;;;;;28.30;10.90;;;;;;;2.35;60.11;100602.34;27219;1215;3067828;-72
2021/10/27 05:20:08;;;;;;;35.30;12.10;;;;;;;2.43;59.89;100607.63;27254;1215;3027300;-73
2021/10/27 05:22:38;;;;;;;31.80;13.30;;;;;;;2.41;59.95;100611.98;27258;1215;3052502;-70
2021/10/27 05:25:07;;;;;;;36.40;13.10;;;;;;;2.44;60.03;100615.58;27267;1209;3026813;-72
2021/10/27 05:27:37;;;;;;;36.80;13.30;;;;;;;2.42;60.34;100612.81;27263;1216;3052155;-72
2021/10/27 05:30:07;;;;;;;53.10;14.00;;;;;;;2.46;59.98;100611.75;27251;1209;3026860;-72
2021/10/27 05:32:36;;;;;;;46.00;14.90;;;;;;;2.48;60.21;100612.27;27238;1209;3026457;-70
2021/10/27 05:35:06;;;;;;;54.70;16.40;;;;;;;2.51;59.89;100608.42;27272;1200;3026358;-72
2021/10/27 05:37:42;;;;;;;56.20;15.70;;;;;;;2.57;59.74;100607.67;27229;1215;3055033;-74
2021/10/27 05:40:11;;;;;;;52.00;15.40;;;;;;;2.69;59.70;100604.80;27246;1215;3027557;-72
2021/10/27 05:42:40;;;;;;;49.90;15.60;;;;;;;2.75;59.35;100608.02;27223;1215;3026272;-70
2021/10/27 05:45:10;;;;;;;46.20;15.90;;;;;;;2.78;59.64;100612.33;27240;1215;3050992;-73
2021/10/27 05:47:43;;;;;;;47.10;16.70;;;;;;;2.86;59.45;100615.70;27230;1215;3026597;-72
2021/10/27 05:55:37;;;;;;;42.00;14.90;;;;;;;2.98;59.80;100621.46;27248;1215;3066696;-67
2021/10/27 05:58:08;;;;;;;50.80;15.20;;;;;;;3.01;59.87;100624.71;27230;1215;3026321;-72
2021/10/27 06:00:38;;;;;;;46.00;15.00;;;;;;;3.09;59.59;100626.71;27222;1215;3052031;-69
2021/10/27 06:03:07;;;;;;;54.80;16.30;;;;;;;3.03;60.10;100626.77;27210;1215;3026256;-70
2021/10/27 06:05:37;;;;;;;46.60;15.30;;;;;;;3.12;60.18;100624.59;27256;1215;3026856;-73
2021/10/27 06:08:06;;;;;;;50.00;15.50;;;;;;;3.17;60.23;100623.84;27205;1215;3028062;-70
2021/10/27 06:10:35;;;;;;;50.10;14.60;;;;;;;3.29;60.00;100627.52;27218;1218;3069709;-71
2021/10/27 06:13:17;;;;;;;50.70;16.70;;;;;;;3.42;59.55;100623.88;27265;1208;3051773;-72
2021/10/27 06:15:52;;;;;;;50.90;16.10;;;;;;;3.51;59.70;100626.53;27224;1215;3054425;-74
2021/10/27 06:18:22;;;;;;;47.80;16.10;;;;;;;3.49;59.71;100626.91;27206;1216;3026203;-72
2021/10/27 06:20:51;;;;;;;60.00;18.70;;;;;;;3.49;59.74;100622.23;27236;1218;3027451;-70
2021/10/27 06:23:24;;;;;;;54.40;18.50;;;;;;;3.68;59.26;100625.44;27223;1215;3026207;-71
2021/10/27 06:25:55;;;;;;;52.30;17.80;;;;;;;3.76;59.26;100622.73;27290;1215;3026278;-72
2021/10/27 06:28:25;;;;;;;54.50;17.20;;;;;;;3.80;59.24;100620.26;27230;1216;3028279;-70
2021/10/27 06:31:19;;;;;;;63.20;17.80;;;;;;;3.91;59.15;100618.88;27217;1215;3026133;-68
2021/10/27 06:36:31;;;;;;;42.50;13.70;;;;;;;4.17;58.64;100609.48;27235;1216;3026383;-70
2021/10/27 06:39:28;;;;;;;39.60;14.90;;;;;;;4.25;58.69;100604.83;27224;1215;3052619;-73
2021/10/27 06:47:35;;;;;;;35.70;12.50;;;;;;;4.36;58.86;100611.77;27218;1215;3055589;-69
2021/10/27 06:50:04;;;;;;;30.50;10.90;;;;;;;4.37;59.03;100613.30;27243;1217;3029302;-70
2021/10/27 06:52:36;;;;;;;31.10;10.60;;;;;;;4.54;58.62;100615.45;27241;1216;3050018;-73
2021/10/27 06:55:06;;;;;;;36.90;11.70;;;;;;;4.60;58.54;100613.27;27218;1216;3026052;-73
2021/10/27 06:57:36;;;;;;;21.90;9.50;;;;;;;4.67;58.47;100610.20;27225;1215;3026403;-72
2021/10/27 07:00:33;;;;;;;29.00;10.20;;;;;;;4.74;58.32;100602.41;27249;1215;3027406;-76
2021/10/27 07:16:27;;;;;;;25.20;10.40;;;;;;;5.36;57.47;100574.46;27282;1215;3052895;-70
2021/10/27 07:18:56;;;;;;;30.40;9.70;;;;;;;5.40;57.34;100574.36;27410;1210;3026310;-69
2021/10/27 07:21:25;;;;;;;28.50;10.50;;;;;;;5.57;57.17;100572.77;27311;1209;3025808;-74
2021/10/27 07:23:54;;;;;;;27.20;10.80;;;;;;;5.70;56.84;100573.70;27355;1216;3050900;-69
2021/10/27 07:26:25;;;;;;;26.90;9.80;;;;;;;5.78;57.28;100567.79;27315;1216;3026151;-69
2021/10/27 07:28:55;;;;;;;25.30;10.40;;;;;;;5.80;57.18;100565.49;27282;1215;3052069;-72
2021/10/27 07:31:26;;;;;;;23.90;9.30;;;;;;;5.82;57.50;100560.73;27292;1216;3027720;-72
2021/10/27 07:34:00;;;;;;;25.50;10.80;;;;;;;5.84;57.54;100563.29;27261;1216;3026736;-70
2021/10/27 07:39:54;;;;;;;25.80;10.30;;;;;;;5.85;57.80;100562.59;27231;1215;3048549;-69
2021/10/27 07:39:55;;;;;;;25.40;9.50;;;;;;;6.08;57.25;100554.42;27259;1216;3052222;-72
2021/10/27 07:42:25;;;;;;;23.10;9.10;;;;;;;6.29;56.62;100550.06;27233;1215;3051093;-72
2021/10/27 07:44:54;;;;;;;20.60;9.30;;;;;;;6.43;56.09;100547.26;27249;1216;3025675;-70
2021/10/27 07:47:23;;;;;;;33.90;12.40;;;;;;;6.61;55.71;100548.69;27264;1216;3026365;-73
2021/10/27 07:49:52;;;;;;;30.20;11.40;;;;;;;6.70;55.59;100551.09;27266;1216;3026544;-71
2021/10/27 07:52:22;;;;;;;44.80;13.50;;;;;;;6.47;56.29;100551.86;27270;1216;3067701;-69
2021/10/27 07:54:51;;;;;;;37.90;13.40;;;;;;;6.52;56.40;100546.67;27283;1216;3026377;-72
2021/10/27 07:57:21;;;;;;;35.10;13.10;;;;;;;6.65;56.14;100540.74;27249;1216;3049974;-69
2021/10/27 07:59:50;;;;;;;39.90;14.90;;;;;;;6.71;56.61;100539.36;27235;1216;3025811;-74
2021/10/27 08:02:19;;;;;;;49.00;14.30;;;;;;;6.80;55.85;100531.65;27237;1216;3027799;-70
2021/10/27 08:04:48;;;;;;;42.30;15.20;;;;;;;6.86;55.67;100527.31;27250;1216;3025890;-70
2021/10/27 08:07:17;;;;;;;46.90;16.70;;;;;;;7.08;55.21;100525.09;27218;1215;3070481;-68
2021/10/27 08:09:47;;;;;;;43.40;15.60;;;;;;;7.16;54.91;100529.05;27203;1218;3026404;-71
2021/10/27 08:12:17;;;;;;;59.10;19.70;;;;;;;7.28;54.87;100523.98;27267;1216;3028220;-68
2021/10/27 08:14:55;;;;;;;54.20;19.10;;;;;;;7.39;54.60;100520.00;27240;1216;3070771;-76
2021/10/27 08:17:24;;;;;;;43.90;14.70;;;;;;;7.51;54.52;100515.79;27250;1216;3026736;-69
2021/10/27 08:19:53;;;;;;;49.90;15.50;;;;;;;7.55;54.49;100517.73;27266;1216;3052282;-69
2021/10/27 08:22:22;;;;;;;47.20;15.60;;;;;;;7.84;53.78;100516.84;27285;1213;3027482;-68
2021/10/27 08:24:53;;;;;;;42.10;13.80;;;;;;;7.90;53.72;100516.48;27246;1216;3052798;-72
2021/10/27 08:27:23;;;;;;;45.30;13.20;;;;;;;7.91;53.78;100514.86;27244;1219;3025677;-69
2021/10/27 08:29:53;;;;;;;36.00;12.00;;;;;;;8.02;53.61;100504.02;27247;1216;3026776;-68
2021/10/27 08:34:54;;;;;;;40.60;13.40;;;;;;;8.08;53.58;100488.66;27281;1216;3026393;-73
2021/10/27 08:37:24;;;;;;;45.20;14.00;;;;;;;8.29;53.10;100486.36;27267;1216;3026265;-69
2021/10/27 08:39:53;;;;;;;34.90;11.40;;;;;;;8.32;53.19;100486.06;27282;1213;3027782;-74
2021/10/27 08:42:25;;;;;;;37.80;13.00;;;;;;;8.41;52.80;100482.48;27254;1215;3027297;-70
2021/10/27 08:44:54;;;;;;;37.70;11.60;;;;;;;8.42;52.65;100480.86;27249;1217;3026651;-67
2021/10/27 08:47:23;;;;;;;43.70;11.50;;;;;;;8.57;52.48;100476.88;27250;1219;3055696;-71
2021/10/27 08:49:55;;;;;;;43.40;12.40;;;;;;;8.74;52.14;100476.44;27257;1216;3026151;-69
2021/10/27 08:52:25;;;;;;;32.10;10.10;;;;;;;8.65;51.79;100474.99;27304;1214;3026006;-68
2021/10/27 08:54:56;;;;;;;36.20;7.50;;;;;;;8.80;51.50;100472.52;27283;1214;3027127;-73
2021/10/27 08:57:25;;;;;;;21.10;8.60;;;;;;;8.91;50.78;100474.23;27246;1216;3026456;-74
2021/10/27 09:00:03;;;;;;;15.80;7.10;;;;;;;8.83;50.63;100476.61;27274;1209;3026779;-73
2021/10/27 09:05:14;;;;;;;18.20;7.50;;;;;;;9.08;50.02;100468.51;27254;1216;3026153;-72
2021/10/27 10:04:42;;;;;;;11.40;5.00;;;;;;;10.54;43.53;100401.91;27241;1219;3055618;-75
2021/10/27 10:07:00;;;;;;;9.50;4.70;;;;;;;10.58;43.78;100394.53;27224;1222;3050710;-71
2021/10/27 10:09:29;;;;;;;13.50;6.30;;;;;;;10.69;43.62;100385.11;27218;1222;3068534;-71
2021/10/27 10:12:00;;;;;;;11.00;4.40;;;;;;;10.59;43.46;100387.15;27186;1221;3026149;-75
2021/10/27 10:14:29;;;;;;;10.70;4.80;;;;;;;10.72;43.17;100384.80;27186;1222;3026767;-73
2021/10/27 10:17:01;;;;;;;15.00;5.50;;;;;;;10.68;42.34;100380.05;27209;1219;3028149;-70
2021/10/27 10:19:33;;;;;;;13.20;4.50;;;;;;;10.63;42.08;100370.11;27261;1220;3027235;-72
2021/10/27 10:22:02;;;;;;;14.90;4.90;;;;;;;10.74;42.45;100367.68;27289;1218;3026494;-69
2021/10/27 10:24:36;;;;;;;10.50;4.70;;;;;;;10.88;42.62;100362.64;27267;1219;3026206;-73
2021/10/27 10:27:13;;;;;;;10.60;4.60;;;;;;;11.03;42.64;100357.38;27268;1218;3049735;-73
2021/10/27 10:29:59;;;;;;;8.80;3.80;;;;;;;10.97;42.67;100356.44;27187;1220;3067608;-74
2021/10/27 10:32:44;;;;;;;17.60;4.60;;;;;;;10.73;43.19;100357.91;27225;1219;3047806;-71
2021/10/27 10:35:31;;;;;;;14.40;4.30;;;;;;;10.70;42.24;100352.98;27224;1217;3052153;-73
2021/10/27 10:38:08;;;;;;;11.50;4.20;;;;;;;10.86;42.73;100346.61;27259;1219;3052511;-68
2021/10/27 10:43:26;;;;;;;17.80;5.00;;;;;;;11.29;41.58;100331.55;27264;1216;3052376;-71
2021/10/27 11:37:35;;;;;;;9.90;5.30;;;;;;;11.95;39.19;100312.96;27248;1219;3068860;-71
2021/10/27 11:40:08;;;;;;;10.10;4.40;;;;;;;11.78;39.55;100307.52;27261;1218;3048951;-69
2021/10/27 11:42:42;;;;;;;11.10;5.20;;;;;;;12.06;39.29;100300.25;27305;1219;3054149;-75
2021/10/27 11:45:25;;;;;;;16.60;5.80;;;;;;;12.06;38.90;100297.29;27253;1218;3050617;-69
2021/10/27 11:47:57;;;;;;;12.20;5.70;;;;;;;12.02;39.60;100291.21;27249;1219;3055344;-75
2021/10/27 11:50:37;;;;;;;12.40;5.60;;;;;;;12.13;39.67;100291.48;27277;1217;3026077;-72
2021/10/27 11:53:16;;;;;;;18.30;6.10;;;;;;;12.36;38.89;100287.45;27274;1217;3052886;-70
2021/10/27 11:55:46;;;;;;;21.60;6.40;;;;;;;12.35;38.56;100289.24;27238;1217;3052601;-68
2021/10/27 11:58:14;;;;;;;15.00;5.70;;;;;;;12.45;38.80;100284.82;27253;1210;3025982;-68
2021/10/27 12:00:47;;;;;;;13.60;5.80;;;;;;;12.25;39.24;100285.41;27241;1218;3054971;-75
2021/10/27 12:03:19;;;;;;;12.40;5.30;;;;;;;12.34;38.87;100276.80;27321;1217;3026141;-73
2021/10/27 12:19:23;;;;;;;12.60;5.40;;;;;;;12.59;38.69;100263.67;27184;1218;3027803;-70
2021/10/27 12:21:53;;;;;;;17.90;6.00;;;;;;;12.68;38.36;100257.90;27231;1217;3028467;-70
2021/10/27 12:24:25;;;;;;;16.60;4.60;;;;;;;12.89;37.58;100258.59;27257;1211;3026935;-72
2021/10/27 12:27:08;;;;;;;13.30;3.80;;;;;;;13.12;36.49;100260.29;27296;1218;3027618;-74
2021/10/27 12:29:38;;;;;;;9.10;4.40;;;;;;;13.08;35.14;100252.98;27168;1220;3047972;-71
2021/10/27 12:32:15;;;;;;;6.50;3.30;;;;;;;12.95;34.79;100244.76;27194;1219;3028178;-69
2021/10/27 12:34:49;;;;;;;7.80;3.20;;;;;;;13.13;34.24;100251.10;27228;1219;3055105;-69
2021/10/27 12:37:26;;;;;;;8.80;3.10;;;;;;;13.26;33.44;100246.45;27227;1219;3056846;-72
2021/10/27 12:43:03;;;;;;;7.50;2.80;;;;;;;13.61;33.71;100244.05;27263;1219;3055231;-67
2021/10/27 12:45:54;;;;;;;11.20;3.40;;;;;;;13.56;33.49;100246.09;27206;1220;3050196;-69
2021/10/27 12:48:25;;;;;;;14.30;4.90;;;;;;;13.42;34.09;100239.04;27187;1219;3069061;-78
2021/10/27 12:51:03;;;;;;;16.80;5.40;;;;;;;13.48;34.47;100244.31;27280;1219;3026438;-75
2021/10/27 12:53:42;;;;;;;11.60;4.40;;;;;;;13.57;34.19;100241.83;27210;1218;3054191;-74
2021/10/27 12:56:24;;;;;;;16.10;4.80;;;;;;;13.56;34.51;100242.25;27208;1219;3051720;-75
2021/10/27 12:59:09;;;;;;;12.60;4.20;;;;;;;13.64;34.08;100235.43;27243;1219;3055681;-68
2021/10/27 13:01:48;;;;;;;10.70;3.90;;;;;;;13.62;34.12;100224.96;27261;1219;3049673;-73
2021/10/27 13:09:37;;;;;;;10.20;4.10;;;;;;;13.50;34.54;100224.31;27238;1219;3069989;-70
2021/10/27 13:33:18;;;;;;;11.00;4.00;;;;;;;14.01;33.58;100219.88;27100;1225;3026073;-71
2021/10/27 13:35:47;;;;;;;14.00;5.50;;;;;;;13.93;33.99;100216.01;27170;1221;3026098;-69
2021/10/27 13:38:17;;;;;;;13.60;5.30;;;;;;;13.86;34.28;100211.73;27110;1222;3029012;-74
2021/10/27 13:40:47;;;;;;;20.10;5.50;;;;;;;13.97;33.99;100207.64;27132;1222;3051400;-65
2021/10/27 13:45:59;;;;;;;19.70;6.40;;;;;;;13.96;33.79;100208.44;27073;1222;3028352;-69
2021/10/27 14:08:03;;;;;;;22.50;6.30;;;;;;;13.20;35.86;100220.92;27215;1218;3055223;-69
2021/10/27 14:10:56;;;;;;;27.20;6.30;;;;;;;13.13;36.08;100212.40;27233;1218;3056629;-75
2021/10/27 15:20:20;;;;;;;38.30;15.80;;;;;;;10.54;42.89;100217.44;27256;1219;3050003;-65
2021/10/27 15:28:36;;;;;;;43.90;15.80;;;;;;;10.40;43.68;100227.61;27199;1218;3071369;-69
2021/10/27 15:42:07;;;;;;;48.20;19.40;;;;;;;10.20;43.51;100231.12;27228;1219;3049818;-75
2021/10/27 15:52:45;;;;;;;107.70;41.10;;;;;;;10.10;43.79;100234.04;27191;1218;3050858;-73
2021/10/27 15:55:14;;;;;;;105.70;46.00;;;;;;;10.02;44.00;100234.73;27235;1216;3028224;-70
2021/10/27 15:57:43;;;;;;;131.30;53.70;;;;;;;9.95;44.08;100233.49;27264;1217;3067346;-71
2021/10/27 16:00:12;;;;;;;139.70;51.30;;;;;;;9.93;44.09;100235.52;27255;1216;3026471;-70
2021/10/27 16:02:42;;;;;;;136.00;50.30;;;;;;;9.91;44.04;100237.17;27262;1217;3050526;-70
2021/10/27 16:05:11;;;;;;;101.60;40.60;;;;;;;9.87;44.14;100239.43;27219;1218;3027652;-72
2021/10/27 16:07:42;;;;;;;94.40;38.30;;;;;;;9.92;44.08;100239.75;27224;1216;3050882;-70
2021/10/27 16:10:16;;;;;;;105.90;44.30;;;;;;;9.89;44.22;100236.89;27240;1217;3027860;-69
2021/10/27 16:12:45;;;;;;;102.60;41.20;;;;;;;9.82;44.57;100237.23;27246;1217;3070845;-68
2021/10/27 16:15:24;;;;;;;75.60;30.00;;;;;;;9.74;44.87;100238.27;27230;1217;3026334;-70
2021/10/27 16:17:53;;;;;;;71.10;29.50;;;;;;;9.72;45.03;100242.55;27205;1217;3050234;-66
2021/10/27 16:20:22;;;;;;;54.90;21.50;;;;;;;9.74;44.95;100244.40;27254;1217;3026488;-72